sensor_id;sensor_type;location;lat;lon;timestamp;P1;durP1;ratioP1;P2;durP2;ratioP2
74293;SDS011;62688;59.904;10.738;2022-08-03T00:01:33;1.08;;;0.82;;
74293;SDS011;62688;59.904;10.738;2022-08-03T00:04:04;1.67;;;0.90;;
74293;SDS011;62688;59.904;10.738;2022-08-03T00:06:30;1.65;;;0.90;;
74293;SDS011;62688;59.904;10.738;2022-08-03T00:08:56;0.88;;;0.60;;
74293;SDS011;62688;59.904;10.738;2022-08-03T00:11:22;2.85;;;0.93;;
74293;SDS011;62688;59.904;10.738;2022-08-03T00:13:48;1.25;;;0.60;;
74293;SDS011;62688;59.904;10.738;2022-08-03T00:16:13;1.38;;;0.75;;
74293;SDS011;62688;59.904;10.738;2022-08-03T00:18:39;1.23;;;1.00;;
74293;SDS011;62688;59.904;10.738;2022-08-03T00:21:05;1.33;;;0.90;;
74293;SDS011;62688;59.904;10.738;2022-08-03T00:23:31;2.80;;;1.17;;
74293;SDS011;62688;59.904;10.738;2022-08-03T00:25:57;4.28;;;1.40;;
74293;SDS011;62688;59.904;10.738;2022-08-03T00:28:23;1.20;;;1.10;;
74293;SDS011;62688;59.904;10.738;2022-08-03T00:30:48;3.03;;;1.20;;
74293;SDS011;62688;59.904;10.738;2022-08-03T00:33:14;4.28;;;1.38;;
74293;SDS011;62688;59.904;10.738;2022-08-03T00:35:40;3.97;;;1.58;;
74293;SDS011;62688;59.904;10.738;2022-08-03T00:38:06;3.92;;;1.83;;
74293;SDS011;62688;59.904;10.738;2022-08-03T00:40:32;3.80;;;1.55;;
74293;SDS011;62688;59.904;10.738;2022-08-03T00:42:59;2.65;;;1.42;;
74293;SDS011;62688;59.904;10.738;2022-08-03T00:45:28;3.92;;;1.40;;
74293;SDS011;62688;59.904;10.738;2022-08-03T00:47:56;2.75;;;1.38;;
74293;SDS011;62688;59.904;10.738;2022-08-03T00:50:23;3.63;;;1.20;;
74293;SDS011;62688;59.904;10.738;2022-08-03T00:52:50;1.98;;;1.23;;
74293;SDS011;62688;59.904;10.738;2022-08-03T00:55:17;3.72;;;1.35;;
74293;SDS011;62688;59.904;10.738;2022-08-03T00:57:43;2.78;;;1.27;;
74293;SDS011;62688;59.904;10.738;2022-08-03T01:00:09;3.60;;;1.55;;
74293;SDS011;62688;59.904;10.738;2022-08-03T01:02:37;5.88;;;2.13;;
74293;SDS011;62688;59.904;10.738;2022-08-03T01:05:04;3.58;;;1.80;;
74293;SDS011;62688;59.904;10.738;2022-08-03T01:07:50;3.97;;;1.70;;
74293;SDS011;62688;59.904;10.738;2022-08-03T01:10:53;6.63;;;2.28;;
74293;SDS011;62688;59.904;10.738;2022-08-03T01:16:28;6.32;;;2.30;;
74293;SDS011;62688;59.904;10.738;2022-08-03T01:18:59;8.25;;;2.20;;
74293;SDS011;62688;59.904;10.738;2022-08-03T01:22:32;9.85;;;2.67;;
74293;SDS011;62688;59.904;10.738;2022-08-03T01:30:23;8.80;;;2.75;;
74293;SDS011;62688;59.904;10.738;2022-08-03T01:32:54;8.45;;;2.90;;
74293;SDS011;62688;59.904;10.738;2022-08-03T01:38:00;10.20;;;3.20;;
74293;SDS011;62688;59.904;10.738;2022-08-03T01:40:28;8.90;;;3.03;;
74293;SDS011;62688;59.904;10.738;2022-08-03T01:42:58;14.38;;;4.43;;
74293;SDS011;62688;59.904;10.738;2022-08-03T01:45:26;11.20;;;3.72;;
74293;SDS011;62688;59.904;10.738;2022-08-03T01:47:52;10.50;;;3.20;;
74293;SDS011;62688;59.904;10.738;2022-08-03T01:50:22;11.88;;;3.42;;
74293;SDS011;62688;59.904;10.738;2022-08-03T01:52:51;11.02;;;2.63;;
74293;SDS011;62688;59.904;10.738;2022-08-03T01:55:18;10.30;;;3.10;;
74293;SDS011;62688;59.904;10.738;2022-08-03T01:57:47;13.35;;;3.78;;
74293;SDS011;62688;59.904;10.738;2022-08-03T02:00:15;11.25;;;3.20;;
74293;SDS011;62688;59.904;10.738;2022-08-03T02:02:41;7.53;;;3.03;;
74293;SDS011;62688;59.904;10.738;2022-08-03T02:05:09;9.85;;;3.67;;
74293;SDS011;62688;59.904;10.738;2022-08-03T02:07:36;11.75;;;3.10;;
74293;SDS011;62688;59.904;10.738;2022-08-03T02:10:04;9.63;;;2.65;;
74293;SDS011;62688;59.904;10.738;2022-08-03T02:12:31;15.02;;;3.20;;
74293;SDS011;62688;59.904;10.738;2022-08-03T02:14:59;7.60;;;2.60;;
74293;SDS011;62688;59.904;10.738;2022-08-03T02:17:26;9.50;;;3.53;;
74293;SDS011;62688;59.904;10.738;2022-08-03T02:19:53;12.25;;;3.78;;
74293;SDS011;62688;59.904;10.738;2022-08-03T02:22:22;5.93;;;2.83;;
74293;SDS011;62688;59.904;10.738;2022-08-03T02:24:49;8.40;;;2.97;;
74293;SDS011;62688;59.904;10.738;2022-08-03T02:27:19;9.82;;;2.97;;
74293;SDS011;62688;59.904;10.738;2022-08-03T02:29:48;8.23;;;2.92;;
74293;SDS011;62688;59.904;10.738;2022-08-03T02:32:23;8.35;;;3.00;;
74293;SDS011;62688;59.904;10.738;2022-08-03T02:34:52;10.80;;;2.72;;
74293;SDS011;62688;59.904;10.738;2022-08-03T02:37:20;7.95;;;2.53;;
74293;SDS011;62688;59.904;10.738;2022-08-03T02:39:53;7.60;;;2.60;;
74293;SDS011;62688;59.904;10.738;2022-08-03T02:42:25;6.72;;;2.83;;
74293;SDS011;62688;59.904;10.738;2022-08-03T02:44:53;6.32;;;2.67;;
74293;SDS011;62688;59.904;10.738;2022-08-03T02:47:20;11.52;;;3.15;;
74293;SDS011;62688;59.904;10.738;2022-08-03T02:49:47;14.43;;;4.22;;
74293;SDS011;62688;59.904;10.738;2022-08-03T02:52:14;14.50;;;2.97;;
74293;SDS011;62688;59.904;10.738;2022-08-03T02:54:43;12.00;;;3.75;;
74293;SDS011;62688;59.904;10.738;2022-08-03T02:57:12;10.68;;;3.05;;
74293;SDS011;62688;59.904;10.738;2022-08-03T02:59:39;9.75;;;2.92;;
74293;SDS011;62688;59.904;10.738;2022-08-03T03:02:06;11.25;;;2.97;;
74293;SDS011;62688;59.904;10.738;2022-08-03T03:04:33;11.85;;;3.20;;
74293;SDS011;62688;59.904;10.738;2022-08-03T03:06:59;14.48;;;4.07;;
74293;SDS011;62688;59.904;10.738;2022-08-03T03:09:26;12.30;;;3.30;;
74293;SDS011;62688;59.904;10.738;2022-08-03T03:11:51;9.75;;;3.40;;
74293;SDS011;62688;59.904;10.738;2022-08-03T03:14:18;8.60;;;3.00;;
74293;SDS011;62688;59.904;10.738;2022-08-03T03:16:44;11.90;;;3.25;;
74293;SDS011;62688;59.904;10.738;2022-08-03T03:19:12;11.13;;;3.00;;
74293;SDS011;62688;59.904;10.738;2022-08-03T03:21:39;7.40;;;2.55;;
74293;SDS011;62688;59.904;10.738;2022-08-03T03:24:05;9.40;;;2.85;;
74293;SDS011;62688;59.904;10.738;2022-08-03T03:26:33;8.32;;;3.75;;
74293;SDS011;62688;59.904;10.738;2022-08-03T03:29:00;7.22;;;3.00;;
74293;SDS011;62688;59.904;10.738;2022-08-03T03:31:26;10.73;;;3.25;;
74293;SDS011;62688;59.904;10.738;2022-08-03T03:33:52;16.85;;;3.95;;
74293;SDS011;62688;59.904;10.738;2022-08-03T03:36:21;9.10;;;3.45;;
74293;SDS011;62688;59.904;10.738;2022-08-03T03:38:47;15.82;;;3.85;;
74293;SDS011;62688;59.904;10.738;2022-08-03T03:41:12;12.40;;;3.33;;
74293;SDS011;62688;59.904;10.738;2022-08-03T03:43:39;13.20;;;3.95;;
74293;SDS011;62688;59.904;10.738;2022-08-03T03:46:05;10.35;;;3.63;;
74293;SDS011;62688;59.904;10.738;2022-08-03T03:48:32;10.00;;;3.38;;
74293;SDS011;62688;59.904;10.738;2022-08-03T03:50:58;10.90;;;3.40;;
74293;SDS011;62688;59.904;10.738;2022-08-03T03:53:25;12.82;;;3.55;;
74293;SDS011;62688;59.904;10.738;2022-08-03T03:55:51;10.50;;;3.60;;
74293;SDS011;62688;59.904;10.738;2022-08-03T03:58:17;9.98;;;3.70;;
74293;SDS011;62688;59.904;10.738;2022-08-03T04:00:44;14.23;;;4.00;;
74293;SDS011;62688;59.904;10.738;2022-08-03T04:03:10;14.38;;;3.72;;
74293;SDS011;62688;59.904;10.738;2022-08-03T04:05:36;11.57;;;3.72;;
74293;SDS011;62688;59.904;10.738;2022-08-03T04:08:21;12.27;;;3.60;;
74293;SDS011;62688;59.904;10.738;2022-08-03T04:13:50;12.25;;;4.15;;
74293;SDS011;62688;59.904;10.738;2022-08-03T04:16:21;12.73;;;4.07;;
74293;SDS011;62688;59.904;10.738;2022-08-03T04:18:51;12.00;;;3.40;;
74293;SDS011;62688;59.904;10.738;2022-08-03T04:21:21;16.10;;;4.22;;
74293;SDS011;62688;59.904;10.738;2022-08-03T04:23:49;9.45;;;3.50;;
74293;SDS011;62688;59.904;10.738;2022-08-03T04:26:19;14.90;;;4.28;;
74293;SDS011;62688;59.904;10.738;2022-08-03T04:28:47;9.70;;;3.30;;
74293;SDS011;62688;59.904;10.738;2022-08-03T04:31:15;14.27;;;4.15;;
74293;SDS011;62688;59.904;10.738;2022-08-03T04:33:43;10.73;;;3.50;;
74293;SDS011;62688;59.904;10.738;2022-08-03T04:36:11;15.55;;;4.18;;
74293;SDS011;62688;59.904;10.738;2022-08-03T04:41:10;9.70;;;3.30;;
74293;SDS011;62688;59.904;10.738;2022-08-03T04:43:37;7.93;;;3.38;;
74293;SDS011;62688;59.904;10.738;2022-08-03T04:46:05;11.15;;;3.40;;
74293;SDS011;62688;59.904;10.738;2022-08-03T04:48:32;13.68;;;3.58;;
74293;SDS011;62688;59.904;10.738;2022-08-03T04:50:59;9.50;;;3.50;;
74293;SDS011;62688;59.904;10.738;2022-08-03T04:53:28;10.02;;;3.30;;
74293;SDS011;62688;59.904;10.738;2022-08-03T04:55:54;11.00;;;3.47;;
74293;SDS011;62688;59.904;10.738;2022-08-03T04:58:20;8.50;;;3.15;;
74293;SDS011;62688;59.904;10.738;2022-08-03T05:00:45;10.40;;;3.90;;
74293;SDS011;62688;59.904;10.738;2022-08-03T05:03:14;8.05;;;3.35;;
74293;SDS011;62688;59.904;10.738;2022-08-03T05:05:40;5.93;;;2.83;;
74293;SDS011;62688;59.904;10.738;2022-08-03T05:08:06;10.10;;;3.50;;
74293;SDS011;62688;59.904;10.738;2022-08-03T05:10:31;7.85;;;3.13;;
74293;SDS011;62688;59.904;10.738;2022-08-03T05:12:57;13.55;;;4.15;;
74293;SDS011;62688;59.904;10.738;2022-08-03T05:15:22;9.40;;;3.50;;
74293;SDS011;62688;59.904;10.738;2022-08-03T05:17:48;12.13;;;3.70;;
74293;SDS011;62688;59.904;10.738;2022-08-03T05:20:14;9.80;;;3.33;;
74293;SDS011;62688;59.904;10.738;2022-08-03T05:22:39;8.32;;;3.53;;
74293;SDS011;62688;59.904;10.738;2022-08-03T05:25:05;11.27;;;3.83;;
74293;SDS011;62688;59.904;10.738;2022-08-03T05:27:31;6.82;;;3.30;;
74293;SDS011;62688;59.904;10.738;2022-08-03T05:29:56;6.05;;;3.20;;
74293;SDS011;62688;59.904;10.738;2022-08-03T05:32:22;12.65;;;3.83;;
74293;SDS011;62688;59.904;10.738;2022-08-03T05:34:48;10.60;;;3.42;;
74293;SDS011;62688;59.904;10.738;2022-08-03T05:37:14;7.75;;;3.00;;
74293;SDS011;62688;59.904;10.738;2022-08-03T05:39:39;11.07;;;3.50;;
74293;SDS011;62688;59.904;10.738;2022-08-03T05:42:05;10.98;;;3.22;;
74293;SDS011;62688;59.904;10.738;2022-08-03T05:44:31;7.88;;;3.33;;
74293;SDS011;62688;59.904;10.738;2022-08-03T05:46:57;9.98;;;3.33;;
74293;SDS011;62688;59.904;10.738;2022-08-03T05:49:23;13.20;;;3.63;;
74293;SDS011;62688;59.904;10.738;2022-08-03T05:51:48;9.65;;;3.10;;
74293;SDS011;62688;59.904;10.738;2022-08-03T05:54:14;10.73;;;2.72;;
74293;SDS011;62688;59.904;10.738;2022-08-03T05:56:40;9.73;;;3.88;;
74293;SDS011;62688;59.904;10.738;2022-08-03T05:59:05;9.52;;;2.75;;
74293;SDS011;62688;59.904;10.738;2022-08-03T06:01:31;11.23;;;3.60;;
74293;SDS011;62688;59.904;10.738;2022-08-03T06:03:57;11.52;;;3.75;;
74293;SDS011;62688;59.904;10.738;2022-08-03T06:06:23;7.82;;;3.20;;
74293;SDS011;62688;59.904;10.738;2022-08-03T06:08:52;8.55;;;2.75;;
74293;SDS011;62688;59.904;10.738;2022-08-03T06:11:18;10.38;;;3.13;;
74293;SDS011;62688;59.904;10.738;2022-08-03T06:13:44;10.40;;;2.97;;
74293;SDS011;62688;59.904;10.738;2022-08-03T06:16:09;8.60;;;2.55;;
74293;SDS011;62688;59.904;10.738;2022-08-03T06:18:35;8.65;;;2.72;;
74293;SDS011;62688;59.904;10.738;2022-08-03T06:21:04;9.13;;;2.63;;
74293;SDS011;62688;59.904;10.738;2022-08-03T06:23:30;6.95;;;2.90;;
74293;SDS011;62688;59.904;10.738;2022-08-03T06:25:55;8.75;;;3.13;;
74293;SDS011;62688;59.904;10.738;2022-08-03T06:28:21;6.13;;;2.60;;
74293;SDS011;62688;59.904;10.738;2022-08-03T06:30:47;7.80;;;2.78;;
74293;SDS011;62688;59.904;10.738;2022-08-03T06:33:12;8.48;;;2.38;;
74293;SDS011;62688;59.904;10.738;2022-08-03T06:35:38;7.07;;;2.50;;
74293;SDS011;62688;59.904;10.738;2022-08-03T06:38:03;5.28;;;2.38;;
74293;SDS011;62688;59.904;10.738;2022-08-03T06:40:29;6.53;;;2.45;;
74293;SDS011;62688;59.904;10.738;2022-08-03T06:42:59;5.30;;;2.05;;
74293;SDS011;62688;59.904;10.738;2022-08-03T06:45:26;6.80;;;2.95;;
74293;SDS011;62688;59.904;10.738;2022-08-03T06:48:08;6.45;;;2.63;;
74293;SDS011;62688;59.904;10.738;2022-08-03T06:50:36;8.40;;;2.80;;
74293;SDS011;62688;59.904;10.738;2022-08-03T06:53:03;9.00;;;2.88;;
74293;SDS011;62688;59.904;10.738;2022-08-03T06:55:30;8.45;;;2.63;;
74293;SDS011;62688;59.904;10.738;2022-08-03T06:57:56;6.80;;;2.63;;
74293;SDS011;62688;59.904;10.738;2022-08-03T07:00:22;6.90;;;2.50;;
74293;SDS011;62688;59.904;10.738;2022-08-03T07:02:48;5.65;;;2.78;;
74293;SDS011;62688;59.904;10.738;2022-08-03T07:05:15;11.35;;;3.25;;
74293;SDS011;62688;59.904;10.738;2022-08-03T07:07:41;7.85;;;2.78;;
74293;SDS011;62688;59.904;10.738;2022-08-03T07:10:07;8.40;;;2.90;;
74293;SDS011;62688;59.904;10.738;2022-08-03T07:12:33;7.95;;;2.97;;
74293;SDS011;62688;59.904;10.738;2022-08-03T07:15:00;10.85;;;3.67;;
74293;SDS011;62688;59.904;10.738;2022-08-03T07:17:26;10.43;;;3.53;;
74293;SDS011;62688;59.904;10.738;2022-08-03T07:19:55;7.32;;;3.05;;
74293;SDS011;62688;59.904;10.738;2022-08-03T07:22:21;9.35;;;3.03;;
74293;SDS011;62688;59.904;10.738;2022-08-03T07:24:47;9.88;;;3.15;;
74293;SDS011;62688;59.904;10.738;2022-08-03T07:27:14;9.85;;;3.50;;
74293;SDS011;62688;59.904;10.738;2022-08-03T07:29:40;11.45;;;3.25;;
74293;SDS011;62688;59.904;10.738;2022-08-03T07:32:06;12.15;;;2.90;;
74293;SDS011;62688;59.904;10.738;2022-08-03T07:34:31;10.10;;;3.45;;
74293;SDS011;62688;59.904;10.738;2022-08-03T07:36:57;5.78;;;2.38;;
74293;SDS011;62688;59.904;10.738;2022-08-03T07:42:14;8.68;;;3.20;;
74293;SDS011;62688;59.904;10.738;2022-08-03T07:44:40;8.35;;;2.70;;
74293;SDS011;62688;59.904;10.738;2022-08-03T07:47:05;7.63;;;2.75;;
74293;SDS011;62688;59.904;10.738;2022-08-03T07:49:31;8.48;;;2.92;;
74293;SDS011;62688;59.904;10.738;2022-08-03T07:51:57;13.02;;;3.50;;
74293;SDS011;62688;59.904;10.738;2022-08-03T07:54:41;7.68;;;3.03;;
74293;SDS011;62688;59.904;10.738;2022-08-03T07:57:07;7.85;;;2.70;;
74293;SDS011;62688;59.904;10.738;2022-08-03T07:59:32;6.03;;;2.80;;
74293;SDS011;62688;59.904;10.738;2022-08-03T08:01:59;5.85;;;2.60;;
74293;SDS011;62688;59.904;10.738;2022-08-03T08:04:24;5.90;;;2.90;;
74293;SDS011;62688;59.904;10.738;2022-08-03T08:06:50;10.13;;;3.20;;
74293;SDS011;62688;59.904;10.738;2022-08-03T08:09:16;7.63;;;2.80;;
74293;SDS011;62688;59.904;10.738;2022-08-03T08:11:41;6.05;;;2.40;;
74293;SDS011;62688;59.904;10.738;2022-08-03T08:14:07;4.63;;;2.30;;
74293;SDS011;62688;59.904;10.738;2022-08-03T08:16:33;6.28;;;2.03;;
74293;SDS011;62688;59.904;10.738;2022-08-03T08:18:59;3.05;;;1.73;;
74293;SDS011;62688;59.904;10.738;2022-08-03T08:21:26;3.63;;;1.73;;
74293;SDS011;62688;59.904;10.738;2022-08-03T08:23:51;3.40;;;1.58;;
74293;SDS011;62688;59.904;10.738;2022-08-03T08:26:17;2.20;;;1.52;;
74293;SDS011;62688;59.904;10.738;2022-08-03T08:28:42;2.38;;;1.30;;
74293;SDS011;62688;59.904;10.738;2022-08-03T08:31:08;2.13;;;1.38;;
74293;SDS011;62688;59.904;10.738;2022-08-03T08:33:34;2.00;;;1.25;;
74293;SDS011;62688;59.904;10.738;2022-08-03T08:36:00;4.88;;;1.50;;
74293;SDS011;62688;59.904;10.738;2022-08-03T08:38:25;2.83;;;1.63;;
74293;SDS011;62688;59.904;10.738;2022-08-03T08:40:53;2.30;;;1.30;;
74293;SDS011;62688;59.904;10.738;2022-08-03T08:43:19;1.67;;;1.13;;
74293;SDS011;62688;59.904;10.738;2022-08-03T08:45:48;2.17;;;1.33;;
74293;SDS011;62688;59.904;10.738;2022-08-03T08:48:17;4.20;;;1.30;;
74293;SDS011;62688;59.904;10.738;2022-08-03T08:50:51;2.30;;;1.08;;
74293;SDS011;62688;59.904;10.738;2022-08-03T08:53:17;0.70;;;0.60;;
74293;SDS011;62688;59.904;10.738;2022-08-03T08:55:45;1.15;;;0.60;;
74293;SDS011;62688;59.904;10.738;2022-08-03T08:58:11;0.95;;;0.70;;
74293;SDS011;62688;59.904;10.738;2022-08-03T09:00:40;0.50;;;0.50;;
74293;SDS011;62688;59.904;10.738;2022-08-03T09:03:09;1.73;;;0.90;;
74293;SDS011;62688;59.904;10.738;2022-08-03T09:05:36;0.82;;;0.77;;
74293;SDS011;62688;59.904;10.738;2022-08-03T09:08:04;2.38;;;1.10;;
74293;SDS011;62688;59.904;10.738;2022-08-03T09:10:30;1.30;;;1.05;;
74293;SDS011;62688;59.904;10.738;2022-08-03T09:12:55;4.63;;;1.52;;
74293;SDS011;62688;59.904;10.738;2022-08-03T09:15:22;2.30;;;1.00;;
74293;SDS011;62688;59.904;10.738;2022-08-03T09:17:51;3.15;;;1.25;;
74293;SDS011;62688;59.904;10.738;2022-08-03T09:20:19;3.38;;;1.38;;
74293;SDS011;62688;59.904;10.738;2022-08-03T09:23:29;2.75;;;1.42;;
74293;SDS011;62688;59.904;10.738;2022-08-03T09:25:36;3.47;;;1.00;;
74293;SDS011;62688;59.904;10.738;2022-08-03T09:28:05;1.58;;;1.30;;
74293;SDS011;62688;59.904;10.738;2022-08-03T09:30:36;3.80;;;1.40;;
74293;SDS011;62688;59.904;10.738;2022-08-03T09:33:10;3.10;;;1.60;;
74293;SDS011;62688;59.904;10.738;2022-08-03T09:35:44;3.65;;;1.65;;
74293;SDS011;62688;59.904;10.738;2022-08-03T09:38:12;4.38;;;1.75;;
74293;SDS011;62688;59.904;10.738;2022-08-03T09:40:50;5.07;;;2.20;;
74293;SDS011;62688;59.904;10.738;2022-08-03T09:43:16;3.78;;;1.67;;
74293;SDS011;62688;59.904;10.738;2022-08-03T09:45:42;5.68;;;2.20;;
74293;SDS011;62688;59.904;10.738;2022-08-03T09:50:58;4.53;;;2.60;;
74293;SDS011;62688;59.904;10.738;2022-08-03T09:53:27;7.93;;;3.40;;
74293;SDS011;62688;59.904;10.738;2022-08-03T09:55:57;5.75;;;3.17;;
74293;SDS011;62688;59.904;10.738;2022-08-03T09:58:28;7.13;;;3.20;;
74293;SDS011;62688;59.904;10.738;2022-08-03T10:01:03;9.05;;;3.25;;
74293;SDS011;62688;59.904;10.738;2022-08-03T10:03:30;6.35;;;3.05;;
74293;SDS011;62688;59.904;10.738;2022-08-03T10:06:09;8.80;;;3.40;;
74293;SDS011;62688;59.904;10.738;2022-08-03T10:08:40;6.60;;;3.58;;
74293;SDS011;62688;59.904;10.738;2022-08-03T10:11:05;7.65;;;3.10;;
74293;SDS011;62688;59.904;10.738;2022-08-03T10:13:31;6.50;;;3.20;;
74293;SDS011;62688;59.904;10.738;2022-08-03T10:15:57;7.25;;;3.20;;
74293;SDS011;62688;59.904;10.738;2022-08-03T10:18:23;7.30;;;3.13;;
74293;SDS011;62688;59.904;10.738;2022-08-03T10:20:50;6.55;;;3.28;;
74293;SDS011;62688;59.904;10.738;2022-08-03T10:23:17;6.78;;;3.10;;
74293;SDS011;62688;59.904;10.738;2022-08-03T10:25:48;6.05;;;2.80;;
74293;SDS011;62688;59.904;10.738;2022-08-03T10:28:18;8.13;;;3.20;;
74293;SDS011;62688;59.904;10.738;2022-08-03T10:30:50;5.68;;;2.42;;
74293;SDS011;62688;59.904;10.738;2022-08-03T10:33:26;6.35;;;2.53;;
74293;SDS011;62688;59.904;10.738;2022-08-03T10:35:55;8.35;;;3.25;;
74293;SDS011;62688;59.904;10.738;2022-08-03T10:38:24;5.13;;;2.88;;
74293;SDS011;62688;59.904;10.738;2022-08-03T10:43:20;8.02;;;2.67;;
74293;SDS011;62688;59.904;10.738;2022-08-03T10:45:50;5.80;;;2.53;;
74293;SDS011;62688;59.904;10.738;2022-08-03T10:48:16;4.00;;;2.72;;
74293;SDS011;62688;59.904;10.738;2022-08-03T10:51:08;3.65;;;2.17;;
74293;SDS011;62688;59.904;10.738;2022-08-03T10:53:41;5.53;;;2.47;;
74293;SDS011;62688;59.904;10.738;2022-08-03T10:59:18;6.25;;;2.40;;
74293;SDS011;62688;59.904;10.738;2022-08-03T11:02:04;4.80;;;1.83;;
74293;SDS011;62688;59.904;10.738;2022-08-03T11:04:32;7.40;;;2.67;;
74293;SDS011;62688;59.904;10.738;2022-08-03T11:07:40;2.92;;;2.08;;
74293;SDS011;62688;59.904;10.738;2022-08-03T11:09:48;7.32;;;2.53;;
74293;SDS011;62688;59.904;10.738;2022-08-03T11:12:22;4.30;;;2.28;;
74293;SDS011;62688;59.904;10.738;2022-08-03T11:14:49;6.97;;;2.78;;
74293;SDS011;62688;59.904;10.738;2022-08-03T11:17:16;6.55;;;2.30;;
74293;SDS011;62688;59.904;10.738;2022-08-03T11:19:44;4.80;;;2.58;;
74293;SDS011;62688;59.904;10.738;2022-08-03T11:22:10;4.07;;;2.22;;
74293;SDS011;62688;59.904;10.738;2022-08-03T11:27:27;3.13;;;2.30;;
74293;SDS011;62688;59.904;10.738;2022-08-03T11:35:08;7.50;;;2.97;;
74293;SDS011;62688;59.904;10.738;2022-08-03T11:40:48;2.75;;;2.33;;
74293;SDS011;62688;59.904;10.738;2022-08-03T11:48:26;3.15;;;2.30;;
74293;SDS011;62688;59.904;10.738;2022-08-03T11:50:58;3.75;;;2.50;;
74293;SDS011;62688;59.904;10.738;2022-08-03T11:53:25;5.72;;;2.45;;
74293;SDS011;62688;59.904;10.738;2022-08-03T11:55:51;3.50;;;2.40;;
74293;SDS011;62688;59.904;10.738;2022-08-03T11:58:21;2.65;;;2.35;;
74293;SDS011;62688;59.904;10.738;2022-08-03T12:00:48;2.65;;;1.88;;
74293;SDS011;62688;59.904;10.738;2022-08-03T12:03:15;3.70;;;2.20;;
74293;SDS011;62688;59.904;10.738;2022-08-03T12:05:50;2.28;;;1.88;;
74293;SDS011;62688;59.904;10.738;2022-08-03T12:10:51;3.58;;;2.15;;
74293;SDS011;62688;59.904;10.738;2022-08-03T12:13:18;3.60;;;1.95;;
74293;SDS011;62688;59.904;10.738;2022-08-03T12:15:54;3.67;;;1.90;;
74293;SDS011;62688;59.904;10.738;2022-08-03T12:18:23;3.75;;;1.83;;
74293;SDS011;62688;59.904;10.738;2022-08-03T12:20:50;3.63;;;2.03;;
74293;SDS011;62688;59.904;10.738;2022-08-03T12:23:16;1.75;;;1.50;;
74293;SDS011;62688;59.904;10.738;2022-08-03T12:25:43;1.83;;;1.48;;
74293;SDS011;62688;59.904;10.738;2022-08-03T12:28:16;2.40;;;1.30;;
74293;SDS011;62688;59.904;10.738;2022-08-03T12:30:46;4.78;;;1.80;;
74293;SDS011;62688;59.904;10.738;2022-08-03T12:33:24;5.25;;;1.67;;
74293;SDS011;62688;59.904;10.738;2022-08-03T12:38:33;1.50;;;1.40;;
74293;SDS011;62688;59.904;10.738;2022-08-03T12:41:07;3.10;;;1.60;;
74293;SDS011;62688;59.904;10.738;2022-08-03T12:43:37;4.07;;;1.88;;
74293;SDS011;62688;59.904;10.738;2022-08-03T12:46:14;4.28;;;1.75;;
74293;SDS011;62688;59.904;10.738;2022-08-03T12:51:32;3.00;;;1.80;;
74293;SDS011;62688;59.904;10.738;2022-08-03T12:53:59;5.25;;;2.20;;
74293;SDS011;62688;59.904;10.738;2022-08-03T12:56:26;2.65;;;1.50;;
74293;SDS011;62688;59.904;10.738;2022-08-03T12:58:51;3.95;;;1.50;;
74293;SDS011;62688;59.904;10.738;2022-08-03T13:01:17;4.82;;;1.80;;
74293;SDS011;62688;59.904;10.738;2022-08-03T13:03:46;1.42;;;1.13;;
74293;SDS011;62688;59.904;10.738;2022-08-03T13:06:13;2.38;;;1.10;;
74293;SDS011;62688;59.904;10.738;2022-08-03T13:08:40;4.25;;;1.27;;
74293;SDS011;62688;59.904;10.738;2022-08-03T13:13:49;3.00;;;1.30;;
74293;SDS011;62688;59.904;10.738;2022-08-03T13:16:16;2.30;;;1.27;;
74293;SDS011;62688;59.904;10.738;2022-08-03T13:18:42;3.58;;;1.02;;
74293;SDS011;62688;59.904;10.738;2022-08-03T13:21:10;3.92;;;0.95;;
74293;SDS011;62688;59.904;10.738;2022-08-03T13:23:37;1.33;;;0.85;;
74293;SDS011;62688;59.904;10.738;2022-08-03T13:26:02;2.65;;;0.80;;
74293;SDS011;62688;59.904;10.738;2022-08-03T13:28:28;3.10;;;0.75;;
74293;SDS011;62688;59.904;10.738;2022-08-03T13:30:53;1.45;;;1.00;;
74293;SDS011;62688;59.904;10.738;2022-08-03T13:33:19;2.80;;;1.05;;
74293;SDS011;62688;59.904;10.738;2022-08-03T13:35:45;2.17;;;1.38;;
74293;SDS011;62688;59.904;10.738;2022-08-03T13:38:10;2.15;;;1.27;;
74293;SDS011;62688;59.904;10.738;2022-08-03T13:40:36;0.90;;;0.73;;
74293;SDS011;62688;59.904;10.738;2022-08-03T13:43:02;1.75;;;0.95;;
74293;SDS011;62688;59.904;10.738;2022-08-03T13:45:28;2.38;;;1.20;;
74293;SDS011;62688;59.904;10.738;2022-08-03T13:47:54;4.28;;;1.25;;
74293;SDS011;62688;59.904;10.738;2022-08-03T13:50:19;2.63;;;1.23;;
74293;SDS011;62688;59.904;10.738;2022-08-03T13:52:45;2.13;;;1.00;;
74293;SDS011;62688;59.904;10.738;2022-08-03T13:55:11;1.63;;;0.73;;
74293;SDS011;62688;59.904;10.738;2022-08-03T13:57:37;1.83;;;0.93;;
74293;SDS011;62688;59.904;10.738;2022-08-03T14:00:03;1.52;;;0.68;;
74293;SDS011;62688;59.904;10.738;2022-08-03T14:02:30;3.20;;;1.10;;
74293;SDS011;62688;59.904;10.738;2022-08-03T14:04:55;2.05;;;0.80;;
74293;SDS011;62688;59.904;10.738;2022-08-03T14:07:21;3.63;;;1.40;;
74293;SDS011;62688;59.904;10.738;2022-08-03T14:09:46;2.25;;;1.15;;
74293;SDS011;62688;59.904;10.738;2022-08-03T14:12:12;2.28;;;1.10;;
74293;SDS011;62688;59.904;10.738;2022-08-03T14:14:38;3.90;;;1.23;;
74293;SDS011;62688;59.904;10.738;2022-08-03T14:17:03;2.83;;;1.20;;
74293;SDS011;62688;59.904;10.738;2022-08-03T14:19:29;2.72;;;1.10;;
74293;SDS011;62688;59.904;10.738;2022-08-03T14:21:55;2.47;;;1.05;;
74293;SDS011;62688;59.904;10.738;2022-08-03T14:24:21;2.42;;;1.00;;
74293;SDS011;62688;59.904;10.738;2022-08-03T14:26:47;3.40;;;0.90;;
74293;SDS011;62688;59.904;10.738;2022-08-03T14:29:12;1.65;;;1.02;;
74293;SDS011;62688;59.904;10.738;2022-08-03T14:31:38;2.28;;;0.90;;
74293;SDS011;62688;59.904;10.738;2022-08-03T14:34:04;2.83;;;1.20;;
74293;SDS011;62688;59.904;10.738;2022-08-03T14:36:29;2.47;;;1.20;;
74293;SDS011;62688;59.904;10.738;2022-08-03T14:38:55;2.95;;;1.15;;
74293;SDS011;62688;59.904;10.738;2022-08-03T14:41:21;3.70;;;1.20;;
74293;SDS011;62688;59.904;10.738;2022-08-03T14:43:46;3.58;;;1.30;;
74293;SDS011;62688;59.904;10.738;2022-08-03T14:46:12;3.55;;;1.80;;
74293;SDS011;62688;59.904;10.738;2022-08-03T14:48:38;2.70;;;1.40;;
74293;SDS011;62688;59.904;10.738;2022-08-03T14:51:04;6.03;;;2.10;;
74293;SDS011;62688;59.904;10.738;2022-08-03T14:53:30;4.93;;;1.70;;
74293;SDS011;62688;59.904;10.738;2022-08-03T14:55:56;3.58;;;1.38;;
74293;SDS011;62688;59.904;10.738;2022-08-03T14:58:22;3.45;;;1.50;;
74293;SDS011;62688;59.904;10.738;2022-08-03T15:00:50;7.45;;;1.83;;
74293;SDS011;62688;59.904;10.738;2022-08-03T15:03:18;4.25;;;1.55;;
74293;SDS011;62688;59.904;10.738;2022-08-03T15:05:47;4.13;;;1.90;;
74293;SDS011;62688;59.904;10.738;2022-08-03T15:08:13;5.30;;;1.92;;
74293;SDS011;62688;59.904;10.738;2022-08-03T15:10:39;5.30;;;1.88;;
74293;SDS011;62688;59.904;10.738;2022-08-03T15:13:04;8.15;;;2.35;;
74293;SDS011;62688;59.904;10.738;2022-08-03T15:15:30;2.83;;;1.65;;
74293;SDS011;62688;59.904;10.738;2022-08-03T15:17:55;5.97;;;2.03;;
74293;SDS011;62688;59.904;10.738;2022-08-03T15:20:21;3.53;;;1.38;;
74293;SDS011;62688;59.904;10.738;2022-08-03T15:22:47;5.45;;;2.00;;
74293;SDS011;62688;59.904;10.738;2022-08-03T15:25:12;5.88;;;2.42;;
74293;SDS011;62688;59.904;10.738;2022-08-03T15:27:38;4.97;;;2.00;;
74293;SDS011;62688;59.904;10.738;2022-08-03T15:30:03;4.40;;;2.03;;